sensor_id;sensor_type;location;lat;lon;timestamp;P1;durP1;ratioP1;P2;durP2;ratioP2
55364;SDS011;41245;45.384;20.390;2023-05-14T00:01:36;6.03;;;3.15;;
55364;SDS011;41245;45.384;20.390;2023-05-14T00:04:02;6.50;;;2.85;;
55364;SDS011;41245;45.384;20.390;2023-05-14T00:06:28;7.68;;;3.13;;
55364;SDS011;41245;45.384;20.390;2023-05-14T00:08:53;4.45;;;2.40;;
55364;SDS011;41245;45.384;20.390;2023-05-14T00:11:19;6.63;;;2.60;;
55364;SDS011;41245;45.384;20.390;2023-05-14T00:13:45;7.53;;;3.67;;
55364;SDS011;41245;45.384;20.390;2023-05-14T00:16:11;5.15;;;2.55;;
55364;SDS011;41245;45.384;20.390;2023-05-14T00:18:36;5.63;;;2.70;;
55364;SDS011;41245;45.384;20.390;2023-05-14T00:21:02;7.00;;;3.10;;
55364;SDS011;41245;45.384;20.390;2023-05-14T00:23:28;10.82;;;2.55;;
55364;SDS011;41245;45.384;20.390;2023-05-14T00:25:54;6.13;;;2.92;;
55364;SDS011;41245;45.384;20.390;2023-05-14T00:28:20;5.78;;;2.28;;
55364;SDS011;41245;45.384;20.390;2023-05-14T00:30:45;6.95;;;2.72;;
55364;SDS011;41245;45.384;20.390;2023-05-14T00:33:15;4.60;;;2.85;;
55364;SDS011;41245;45.384;20.390;2023-05-14T00:35:42;5.93;;;3.40;;
55364;SDS011;41245;45.384;20.390;2023-05-14T00:38:08;13.15;;;4.40;;
55364;SDS011;41245;45.384;20.390;2023-05-14T00:40:34;8.10;;;3.28;;
55364;SDS011;41245;45.384;20.390;2023-05-14T00:43:00;6.22;;;2.90;;
55364;SDS011;41245;45.384;20.390;2023-05-14T00:45:25;4.20;;;2.88;;
55364;SDS011;41245;45.384;20.390;2023-05-14T00:47:52;5.65;;;3.13;;
55364;SDS011;41245;45.384;20.390;2023-05-14T00:50:18;6.05;;;3.60;;
55364;SDS011;41245;45.384;20.390;2023-05-14T00:52:44;9.40;;;3.30;;
55364;SDS011;41245;45.384;20.390;2023-05-14T00:55:12;6.50;;;3.30;;
55364;SDS011;41245;45.384;20.390;2023-05-14T00:57:40;4.87;;;2.67;;
55364;SDS011;41245;45.384;20.390;2023-05-14T01:00:06;5.80;;;3.05;;
55364;SDS011;41245;45.384;20.390;2023-05-14T01:02:32;5.00;;;3.08;;
55364;SDS011;41245;45.384;20.390;2023-05-14T01:04:58;4.20;;;3.40;;
55364;SDS011;41245;45.384;20.390;2023-05-14T01:07:38;4.28;;;2.92;;
55364;SDS011;41245;45.384;20.390;2023-05-14T01:10:17;7.07;;;3.20;;
55364;SDS011;41245;45.384;20.390;2023-05-14T01:15:44;7.25;;;3.35;;
55364;SDS011;41245;45.384;20.390;2023-05-14T01:18:13;6.70;;;2.90;;
55364;SDS011;41245;45.384;20.390;2023-05-14T01:20:41;4.43;;;2.67;;
55364;SDS011;41245;45.384;20.390;2023-05-14T01:23:08;7.32;;;3.25;;
55364;SDS011;41245;45.384;20.390;2023-05-14T01:25:34;4.97;;;2.88;;
55364;SDS011;41245;45.384;20.390;2023-05-14T01:28:03;5.75;;;2.72;;
55364;SDS011;41245;45.384;20.390;2023-05-14T01:30:48;6.45;;;3.33;;
55364;SDS011;41245;45.384;20.390;2023-05-14T01:33:18;5.43;;;2.38;;
55364;SDS011;41245;45.384;20.390;2023-05-14T01:35:46;7.82;;;3.35;;
55364;SDS011;41245;45.384;20.390;2023-05-14T01:38:14;3.28;;;2.63;;
55364;SDS011;41245;45.384;20.390;2023-05-14T01:43:09;6.47;;;3.08;;
55364;SDS011;41245;45.384;20.390;2023-05-14T01:45:35;5.18;;;2.75;;
55364;SDS011;41245;45.384;20.390;2023-05-14T01:48:01;7.22;;;2.80;;
55364;SDS011;41245;45.384;20.390;2023-05-14T01:50:28;5.40;;;3.38;;
55364;SDS011;41245;45.384;20.390;2023-05-14T01:52:54;9.02;;;3.03;;
55364;SDS011;41245;45.384;20.390;2023-05-14T01:55:22;6.28;;;3.17;;
55364;SDS011;41245;45.384;20.390;2023-05-14T01:57:49;5.25;;;2.88;;
55364;SDS011;41245;45.384;20.390;2023-05-14T02:00:15;5.22;;;3.05;;
55364;SDS011;41245;45.384;20.390;2023-05-14T02:02:41;4.28;;;2.65;;
55364;SDS011;41245;45.384;20.390;2023-05-14T02:05:07;5.80;;;3.00;;
55364;SDS011;41245;45.384;20.390;2023-05-14T02:07:34;5.38;;;3.60;;
55364;SDS011;41245;45.384;20.390;2023-05-14T02:10:00;4.47;;;3.15;;
55364;SDS011;41245;45.384;20.390;2023-05-14T02:12:25;3.83;;;3.38;;
55364;SDS011;41245;45.384;20.390;2023-05-14T02:14:51;5.97;;;3.35;;
55364;SDS011;41245;45.384;20.390;2023-05-14T02:17:17;6.28;;;4.30;;
55364;SDS011;41245;45.384;20.390;2023-05-14T02:19:43;6.85;;;3.40;;
55364;SDS011;41245;45.384;20.390;2023-05-14T02:22:10;9.18;;;4.38;;
55364;SDS011;41245;45.384;20.390;2023-05-14T02:24:36;5.90;;;4.13;;
55364;SDS011;41245;45.384;20.390;2023-05-14T02:27:02;5.80;;;3.88;;
55364;SDS011;41245;45.384;20.390;2023-05-14T02:29:28;8.73;;;4.13;;
55364;SDS011;41245;45.384;20.390;2023-05-14T02:31:53;6.30;;;4.05;;
55364;SDS011;41245;45.384;20.390;2023-05-14T02:34:19;5.32;;;3.78;;
55364;SDS011;41245;45.384;20.390;2023-05-14T02:36:45;4.88;;;4.18;;
55364;SDS011;41245;45.384;20.390;2023-05-14T02:39:11;6.10;;;3.80;;
55364;SDS011;41245;45.384;20.390;2023-05-14T02:41:37;8.45;;;4.43;;
55364;SDS011;41245;45.384;20.390;2023-05-14T02:44:02;6.68;;;4.53;;
55364;SDS011;41245;45.384;20.390;2023-05-14T02:46:29;8.40;;;4.15;;
55364;SDS011;41245;45.384;20.390;2023-05-14T02:48:55;9.40;;;4.25;;
55364;SDS011;41245;45.384;20.390;2023-05-14T02:51:21;6.35;;;4.10;;
55364;SDS011;41245;45.384;20.390;2023-05-14T02:53:47;5.65;;;5.07;;
55364;SDS011;41245;45.384;20.390;2023-05-14T02:56:12;7.75;;;4.75;;
55364;SDS011;41245;45.384;20.390;2023-05-14T02:58:38;7.25;;;4.05;;
55364;SDS011;41245;45.384;20.390;2023-05-14T03:01:04;5.15;;;4.05;;
55364;SDS011;41245;45.384;20.390;2023-05-14T03:03:29;6.57;;;4.25;;
55364;SDS011;41245;45.384;20.390;2023-05-14T03:05:55;5.30;;;4.03;;
55364;SDS011;41245;45.384;20.390;2023-05-14T03:08:21;6.60;;;4.53;;
55364;SDS011;41245;45.384;20.390;2023-05-14T03:10:47;6.38;;;4.38;;
55364;SDS011;41245;45.384;20.390;2023-05-14T03:13:12;8.43;;;4.93;;
55364;SDS011;41245;45.384;20.390;2023-05-14T03:15:42;6.55;;;5.03;;
55364;SDS011;41245;45.384;20.390;2023-05-14T03:18:08;5.15;;;4.22;;
55364;SDS011;41245;45.384;20.390;2023-05-14T03:20:33;10.45;;;4.97;;
55364;SDS011;41245;45.384;20.390;2023-05-14T03:22:59;6.85;;;4.55;;
55364;SDS011;41245;45.384;20.390;2023-05-14T03:25:25;5.57;;;4.28;;
55364;SDS011;41245;45.384;20.390;2023-05-14T03:27:51;8.57;;;4.97;;
55364;SDS011;41245;45.384;20.390;2023-05-14T03:30:16;6.80;;;5.45;;
55364;SDS011;41245;45.384;20.390;2023-05-14T03:32:42;6.80;;;4.65;;
55364;SDS011;41245;45.384;20.390;2023-05-14T03:35:09;5.53;;;4.30;;
55364;SDS011;41245;45.384;20.390;2023-05-14T03:37:34;5.75;;;4.72;;
55364;SDS011;41245;45.384;20.390;2023-05-14T03:40:00;7.63;;;4.50;;
55364;SDS011;41245;45.384;20.390;2023-05-14T03:42:26;7.50;;;4.72;;
55364;SDS011;41245;45.384;20.390;2023-05-14T03:44:52;6.47;;;5.05;;
55364;SDS011;41245;45.384;20.390;2023-05-14T03:47:17;11.43;;;4.47;;
55364;SDS011;41245;45.384;20.390;2023-05-14T03:49:43;8.02;;;4.75;;
55364;SDS011;41245;45.384;20.390;2023-05-14T03:52:09;6.10;;;4.53;;
55364;SDS011;41245;45.384;20.390;2023-05-14T03:54:34;6.40;;;5.40;;
55364;SDS011;41245;45.384;20.390;2023-05-14T03:57:00;7.35;;;5.15;;
55364;SDS011;41245;45.384;20.390;2023-05-14T03:59:26;6.85;;;5.07;;
55364;SDS011;41245;45.384;20.390;2023-05-14T04:01:52;8.75;;;5.55;;
55364;SDS011;41245;45.384;20.390;2023-05-14T04:04:17;6.95;;;4.38;;
55364;SDS011;41245;45.384;20.390;2023-05-14T04:06:43;9.57;;;5.72;;
55364;SDS011;41245;45.384;20.390;2023-05-14T04:09:09;8.02;;;4.53;;
55364;SDS011;41245;45.384;20.390;2023-05-14T04:11:35;7.25;;;4.40;;
55364;SDS011;41245;45.384;20.390;2023-05-14T04:14:01;6.60;;;4.63;;
55364;SDS011;41245;45.384;20.390;2023-05-14T04:16:27;8.55;;;4.85;;
55364;SDS011;41245;45.384;20.390;2023-05-14T04:18:52;5.88;;;5.28;;
55364;SDS011;41245;45.384;20.390;2023-05-14T04:21:18;10.73;;;6.40;;
55364;SDS011;41245;45.384;20.390;2023-05-14T04:23:44;9.25;;;5.47;;
55364;SDS011;41245;45.384;20.390;2023-05-14T04:26:09;6.30;;;5.20;;
55364;SDS011;41245;45.384;20.390;2023-05-14T04:28:35;9.13;;;6.10;;
55364;SDS011;41245;45.384;20.390;2023-05-14T04:31:01;6.97;;;4.72;;
55364;SDS011;41245;45.384;20.390;2023-05-14T04:33:27;7.53;;;5.05;;
55364;SDS011;41245;45.384;20.390;2023-05-14T04:35:53;6.97;;;5.80;;
55364;SDS011;41245;45.384;20.390;2023-05-14T04:38:19;8.63;;;5.70;;
55364;SDS011;41245;45.384;20.390;2023-05-14T04:40:45;6.15;;;4.97;;
55364;SDS011;41245;45.384;20.390;2023-05-14T04:43:11;9.95;;;6.18;;
55364;SDS011;41245;45.384;20.390;2023-05-14T04:45:36;9.75;;;5.60;;
55364;SDS011;41245;45.384;20.390;2023-05-14T04:48:02;8.90;;;5.25;;
55364;SDS011;41245;45.384;20.390;2023-05-14T04:50:28;8.65;;;5.18;;
55364;SDS011;41245;45.384;20.390;2023-05-14T04:52:54;9.25;;;6.13;;
55364;SDS011;41245;45.384;20.390;2023-05-14T04:55:20;8.50;;;6.30;;
55364;SDS011;41245;45.384;20.390;2023-05-14T04:57:46;9.48;;;6.05;;
55364;SDS011;41245;45.384;20.390;2023-05-14T05:00:13;9.73;;;6.47;;
55364;SDS011;41245;45.384;20.390;2023-05-14T05:02:41;12.55;;;6.30;;
55364;SDS011;41245;45.384;20.390;2023-05-14T05:05:07;15.82;;;8.18;;
55364;SDS011;41245;45.384;20.390;2023-05-14T05:07:33;10.13;;;6.68;;
55364;SDS011;41245;45.384;20.390;2023-05-14T05:09:59;9.63;;;7.13;;
55364;SDS011;41245;45.384;20.390;2023-05-14T05:12:26;11.40;;;7.20;;
55364;SDS011;41245;45.384;20.390;2023-05-14T05:14:54;13.15;;;6.63;;
55364;SDS011;41245;45.384;20.390;2023-05-14T05:17:21;13.00;;;7.00;;
55364;SDS011;41245;45.384;20.390;2023-05-14T05:19:47;11.90;;;6.95;;
55364;SDS011;41245;45.384;20.390;2023-05-14T05:22:13;10.38;;;7.22;;
55364;SDS011;41245;45.384;20.390;2023-05-14T05:24:39;11.45;;;6.43;;
55364;SDS011;41245;45.384;20.390;2023-05-14T05:27:05;7.53;;;6.28;;
55364;SDS011;41245;45.384;20.390;2023-05-14T05:29:31;8.68;;;6.43;;
55364;SDS011;41245;45.384;20.390;2023-05-14T05:31:57;7.03;;;5.70;;
55364;SDS011;41245;45.384;20.390;2023-05-14T05:34:23;8.88;;;5.85;;
55364;SDS011;41245;45.384;20.390;2023-05-14T05:36:48;10.60;;;6.28;;
55364;SDS011;41245;45.384;20.390;2023-05-14T05:39:14;6.90;;;5.68;;
55364;SDS011;41245;45.384;20.390;2023-05-14T05:41:40;9.52;;;6.40;;
55364;SDS011;41245;45.384;20.390;2023-05-14T05:44:07;8.23;;;6.55;;
55364;SDS011;41245;45.384;20.390;2023-05-14T05:46:33;7.95;;;6.53;;
55364;SDS011;41245;45.384;20.390;2023-05-14T05:48:59;11.15;;;6.72;;
55364;SDS011;41245;45.384;20.390;2023-05-14T05:51:24;8.70;;;6.00;;
55364;SDS011;41245;45.384;20.390;2023-05-14T05:53:50;7.47;;;5.95;;
55364;SDS011;41245;45.384;20.390;2023-05-14T05:56:16;11.13;;;5.78;;
55364;SDS011;41245;45.384;20.390;2023-05-14T05:58:42;7.55;;;5.90;;
55364;SDS011;41245;45.384;20.390;2023-05-14T06:01:07;8.18;;;5.38;;
55364;SDS011;41245;45.384;20.390;2023-05-14T06:03:33;13.05;;;5.75;;
55364;SDS011;41245;45.384;20.390;2023-05-14T06:05:59;6.55;;;4.80;;
55364;SDS011;41245;45.384;20.390;2023-05-14T06:08:25;6.55;;;4.68;;
55364;SDS011;41245;45.384;20.390;2023-05-14T06:10:50;8.93;;;5.25;;
55364;SDS011;41245;45.384;20.390;2023-05-14T06:13:16;6.97;;;4.55;;
55364;SDS011;41245;45.384;20.390;2023-05-14T06:15:42;6.60;;;4.32;;
55364;SDS011;41245;45.384;20.390;2023-05-14T06:18:08;9.43;;;4.63;;
55364;SDS011;41245;45.384;20.390;2023-05-14T06:20:33;7.22;;;5.30;;
55364;SDS011;41245;45.384;20.390;2023-05-14T06:22:59;8.55;;;5.18;;
55364;SDS011;41245;45.384;20.390;2023-05-14T06:25:25;11.27;;;5.30;;
55364;SDS011;41245;45.384;20.390;2023-05-14T06:27:50;8.82;;;5.10;;
55364;SDS011;41245;45.384;20.390;2023-05-14T06:30:16;8.25;;;5.13;;
55364;SDS011;41245;45.384;20.390;2023-05-14T06:32:42;13.18;;;5.10;;
55364;SDS011;41245;45.384;20.390;2023-05-14T06:35:07;7.43;;;5.22;;
55364;SDS011;41245;45.384;20.390;2023-05-14T06:37:33;7.95;;;4.80;;
55364;SDS011;41245;45.384;20.390;2023-05-14T06:39:59;9.57;;;5.00;;
55364;SDS011;41245;45.384;20.390;2023-05-14T06:42:26;7.30;;;5.25;;
55364;SDS011;41245;45.384;20.390;2023-05-14T06:44:51;8.63;;;4.93;;
55364;SDS011;41245;45.384;20.390;2023-05-14T06:47:17;10.65;;;5.70;;
55364;SDS011;41245;45.384;20.390;2023-05-14T06:49:43;8.55;;;4.70;;
55364;SDS011;41245;45.384;20.390;2023-05-14T06:52:08;10.38;;;5.25;;
55364;SDS011;41245;45.384;20.390;2023-05-14T06:54:34;8.73;;;5.57;;
55364;SDS011;41245;45.384;20.390;2023-05-14T06:57:00;10.00;;;5.22;;
55364;SDS011;41245;45.384;20.390;2023-05-14T06:59:25;8.75;;;5.22;;
55364;SDS011;41245;45.384;20.390;2023-05-14T07:01:51;7.53;;;5.32;;
55364;SDS011;41245;45.384;20.390;2023-05-14T07:04:17;10.13;;;5.18;;
55364;SDS011;41245;45.384;20.390;2023-05-14T07:06:42;15.98;;;5.45;;
55364;SDS011;41245;45.384;20.390;2023-05-14T07:09:08;8.55;;;5.55;;
55364;SDS011;41245;45.384;20.390;2023-05-14T07:11:34;5.75;;;4.35;;
55364;SDS011;41245;45.384;20.390;2023-05-14T07:14:00;7.05;;;4.57;;
55364;SDS011;41245;45.384;20.390;2023-05-14T07:16:26;5.55;;;4.88;;
55364;SDS011;41245;45.384;20.390;2023-05-14T07:18:52;12.98;;;5.07;;
55364;SDS011;41245;45.384;20.390;2023-05-14T07:21:17;8.75;;;4.38;;
55364;SDS011;41245;45.384;20.390;2023-05-14T07:23:43;10.68;;;5.47;;
55364;SDS011;41245;45.384;20.390;2023-05-14T07:26:09;5.85;;;4.45;;
55364;SDS011;41245;45.384;20.390;2023-05-14T07:28:34;6.45;;;4.32;;
55364;SDS011;41245;45.384;20.390;2023-05-14T07:31:01;8.32;;;4.75;;
55364;SDS011;41245;45.384;20.390;2023-05-14T07:33:32;4.75;;;4.25;;
55364;SDS011;41245;45.384;20.390;2023-05-14T07:35:59;7.38;;;4.38;;
55364;SDS011;41245;45.384;20.390;2023-05-14T07:38:25;6.85;;;4.20;;
55364;SDS011;41245;45.384;20.390;2023-05-14T07:40:51;5.28;;;4.25;;
55364;SDS011;41245;45.384;20.390;2023-05-14T07:43:16;6.03;;;4.95;;
55364;SDS011;41245;45.384;20.390;2023-05-14T07:45:42;7.05;;;4.63;;
55364;SDS011;41245;45.384;20.390;2023-05-14T07:48:08;5.00;;;4.05;;
55364;SDS011;41245;45.384;20.390;2023-05-14T07:50:34;5.03;;;3.97;;
55364;SDS011;41245;45.384;20.390;2023-05-14T07:53:00;7.43;;;4.70;;
55364;SDS011;41245;45.384;20.390;2023-05-14T07:55:26;10.73;;;4.35;;
55364;SDS011;41245;45.384;20.390;2023-05-14T07:57:52;6.00;;;4.85;;
55364;SDS011;41245;45.384;20.390;2023-05-14T08:00:17;5.13;;;4.25;;
55364;SDS011;41245;45.384;20.390;2023-05-14T08:02:43;5.97;;;4.70;;
55364;SDS011;41245;45.384;20.390;2023-05-14T08:05:09;6.70;;;5.05;;
55364;SDS011;41245;45.384;20.390;2023-05-14T08:07:35;7.50;;;5.28;;
55364;SDS011;41245;45.384;20.390;2023-05-14T08:10:00;8.48;;;5.32;;
55364;SDS011;41245;45.384;20.390;2023-05-14T08:12:26;11.40;;;5.57;;
55364;SDS011;41245;45.384;20.390;2023-05-14T08:14:53;8.18;;;5.20;;
55364;SDS011;41245;45.384;20.390;2023-05-14T08:17:20;6.63;;;5.15;;
55364;SDS011;41245;45.384;20.390;2023-05-14T08:19:45;6.65;;;5.57;;
55364;SDS011;41245;45.384;20.390;2023-05-14T08:22:11;8.43;;;6.03;;
55364;SDS011;41245;45.384;20.390;2023-05-14T08:24:37;10.48;;;5.13;;
55364;SDS011;41245;45.384;20.390;2023-05-14T08:27:03;10.90;;;6.18;;
55364;SDS011;41245;45.384;20.390;2023-05-14T08:29:29;6.85;;;5.70;;
55364;SDS011;41245;45.384;20.390;2023-05-14T08:31:56;13.18;;;6.50;;
55364;SDS011;41245;45.384;20.390;2023-05-14T08:34:22;13.20;;;6.93;;
55364;SDS011;41245;45.384;20.390;2023-05-14T08:36:47;10.85;;;6.97;;
55364;SDS011;41245;45.384;20.390;2023-05-14T08:39:13;8.63;;;7.55;;
55364;SDS011;41245;45.384;20.390;2023-05-14T08:41:39;10.88;;;6.68;;
55364;SDS011;41245;45.384;20.390;2023-05-14T08:44:06;9.80;;;6.35;;
55364;SDS011;41245;45.384;20.390;2023-05-14T08:51:36;9.70;;;7.03;;
55364;SDS011;41245;45.384;20.390;2023-05-14T08:54:03;8.43;;;5.93;;
55364;SDS011;41245;45.384;20.390;2023-05-14T08:56:31;12.38;;;6.20;;
55364;SDS011;41245;45.384;20.390;2023-05-14T08:58:57;9.73;;;6.97;;
55364;SDS011;41245;45.384;20.390;2023-05-14T09:01:24;8.35;;;6.15;;
55364;SDS011;41245;45.384;20.390;2023-05-14T09:03:50;8.70;;;6.05;;
55364;SDS011;41245;45.384;20.390;2023-05-14T09:06:17;8.93;;;6.65;;
55364;SDS011;41245;45.384;20.390;2023-05-14T09:08:45;9.70;;;5.05;;
55364;SDS011;41245;45.384;20.390;2023-05-14T09:11:11;8.05;;;5.03;;
55364;SDS011;41245;45.384;20.390;2023-05-14T09:13:37;8.50;;;5.72;;
55364;SDS011;41245;45.384;20.390;2023-05-14T09:16:03;6.63;;;5.35;;
55364;SDS011;41245;45.384;20.390;2023-05-14T09:18:29;9.00;;;6.25;;
55364;SDS011;41245;45.384;20.390;2023-05-14T09:20:56;10.45;;;5.88;;
55364;SDS011;41245;45.384;20.390;2023-05-14T09:23:24;6.72;;;4.10;;
55364;SDS011;41245;45.384;20.390;2023-05-14T09:25:50;7.95;;;5.18;;
55364;SDS011;41245;45.384;20.390;2023-05-14T09:28:16;6.95;;;4.80;;
55364;SDS011;41245;45.384;20.390;2023-05-14T09:30:51;5.65;;;5.00;;
55364;SDS011;41245;45.384;20.390;2023-05-14T09:33:26;9.43;;;4.63;;
55364;SDS011;41245;45.384;20.390;2023-05-14T09:35:58;8.70;;;5.05;;
55364;SDS011;41245;45.384;20.390;2023-05-14T09:38:31;10.02;;;5.63;;
55364;SDS011;41245;45.384;20.390;2023-05-14T09:40:57;12.85;;;5.43;;
55364;SDS011;41245;45.384;20.390;2023-05-14T09:43:24;11.45;;;5.10;;
55364;SDS011;41245;45.384;20.390;2023-05-14T09:45:51;6.68;;;5.22;;
55364;SDS011;41245;45.384;20.390;2023-05-14T09:48:17;10.13;;;6.38;;
55364;SDS011;41245;45.384;20.390;2023-05-14T09:50:43;6.53;;;5.20;;
55364;SDS011;41245;45.384;20.390;2023-05-14T09:53:10;6.32;;;4.90;;
55364;SDS011;41245;45.384;20.390;2023-05-14T09:55:38;8.50;;;5.07;;
55364;SDS011;41245;45.384;20.390;2023-05-14T09:58:04;5.68;;;4.55;;
55364;SDS011;41245;45.384;20.390;2023-05-14T10:00:30;14.55;;;5.18;;
55364;SDS011;41245;45.384;20.390;2023-05-14T10:02:57;9.43;;;5.30;;
55364;SDS011;41245;45.384;20.390;2023-05-14T10:05:23;8.75;;;5.40;;
55364;SDS011;41245;45.384;20.390;2023-05-14T10:07:51;9.02;;;5.78;;
55364;SDS011;41245;45.384;20.390;2023-05-14T10:10:18;10.43;;;5.18;;
55364;SDS011;41245;45.384;20.390;2023-05-14T10:12:46;10.90;;;5.45;;
55364;SDS011;41245;45.384;20.390;2023-05-14T10:15:19;11.18;;;5.30;;
55364;SDS011;41245;45.384;20.390;2023-05-14T10:17:54;10.35;;;4.93;;
55364;SDS011;41245;45.384;20.390;2023-05-14T10:22:49;11.93;;;5.72;;
55364;SDS011;41245;45.384;20.390;2023-05-14T10:25:15;9.10;;;4.90;;
55364;SDS011;41245;45.384;20.390;2023-05-14T10:27:41;11.00;;;6.75;;
55364;SDS011;41245;45.384;20.390;2023-05-14T10:30:11;11.75;;;6.05;;
55364;SDS011;41245;45.384;20.390;2023-05-14T10:32:37;11.07;;;5.28;;
55364;SDS011;41245;45.384;20.390;2023-05-14T10:35:18;12.75;;;6.22;;
55364;SDS011;41245;45.384;20.390;2023-05-14T10:37:46;8.23;;;6.13;;
55364;SDS011;41245;45.384;20.390;2023-05-14T10:40:15;11.30;;;5.47;;
55364;SDS011;41245;45.384;20.390;2023-05-14T10:42:43;10.32;;;5.18;;
55364;SDS011;41245;45.384;20.390;2023-05-14T10:45:14;8.98;;;5.00;;
55364;SDS011;41245;45.384;20.390;2023-05-14T10:47:44;8.40;;;4.25;;
55364;SDS011;41245;45.384;20.390;2023-05-14T10:50:12;6.63;;;4.28;;
55364;SDS011;41245;45.384;20.390;2023-05-14T10:52:42;5.50;;;4.35;;
55364;SDS011;41245;45.384;20.390;2023-05-14T10:57:37;7.40;;;4.43;;
55364;SDS011;41245;45.384;20.390;2023-05-14T11:00:06;7.90;;;4.32;;
55364;SDS011;41245;45.384;20.390;2023-05-14T11:02:36;5.57;;;3.72;;
55364;SDS011;41245;45.384;20.390;2023-05-14T11:05:04;8.63;;;4.93;;
55364;SDS011;41245;45.384;20.390;2023-05-14T11:07:43;8.18;;;5.32;;
55364;SDS011;41245;45.384;20.390;2023-05-14T11:10:10;8.57;;;4.60;;
55364;SDS011;41245;45.384;20.390;2023-05-14T11:12:42;7.07;;;4.47;;
55364;SDS011;41245;45.384;20.390;2023-05-14T11:15:10;7.70;;;3.97;;
55364;SDS011;41245;45.384;20.390;2023-05-14T11:17:46;7.07;;;3.92;;
55364;SDS011;41245;45.384;20.390;2023-05-14T11:20:13;5.32;;;3.95;;
55364;SDS011;41245;45.384;20.390;2023-05-14T11:22:40;6.57;;;4.28;;
55364;SDS011;41245;45.384;20.390;2023-05-14T11:25:07;6.80;;;4.13;;
55364;SDS011;41245;45.384;20.390;2023-05-14T11:27:35;6.82;;;4.32;;
55364;SDS011;41245;45.384;20.390;2023-05-14T11:30:02;10.43;;;3.72;;
55364;SDS011;41245;45.384;20.390;2023-05-14T11:32:30;6.40;;;4.20;;
55364;SDS011;41245;45.384;20.390;2023-05-14T11:34:56;5.68;;;4.20;;
55364;SDS011;41245;45.384;20.390;2023-05-14T11:37:22;5.88;;;4.20;;
55364;SDS011;41245;45.384;20.390;2023-05-14T11:39:49;7.85;;;4.75;;
55364;SDS011;41245;45.384;20.390;2023-05-14T11:42:19;6.25;;;3.92;;
55364;SDS011;41245;45.384;20.390;2023-05-14T11:44:47;7.05;;;4.50;;
55364;SDS011;41245;45.384;20.390;2023-05-14T11:47:15;7.43;;;4.00;;
55364;SDS011;41245;45.384;20.390;2023-05-14T11:49:42;12.35;;;3.80;;
55364;SDS011;41245;45.384;20.390;2023-05-14T11:52:08;8.88;;;4.30;;
55364;SDS011;41245;45.384;20.390;2023-05-14T11:54:36;8.50;;;5.32;;
55364;SDS011;41245;45.384;20.390;2023-05-14T11:57:06;13.23;;;4.22;;
55364;SDS011;41245;45.384;20.390;2023-05-14T11:59:40;7.13;;;4.15;;
55364;SDS011;41245;45.384;20.390;2023-05-14T12:02:13;7.13;;;3.65;;
55364;SDS011;41245;45.384;20.390;2023-05-14T12:04:41;5.93;;;3.63;;
55364;SDS011;41245;45.384;20.390;2023-05-14T12:07:09;4.47;;;3.22;;
55364;SDS011;41245;45.384;20.390;2023-05-14T12:09:37;4.30;;;2.92;;
55364;SDS011;41245;45.384;20.390;2023-05-14T12:12:18;10.23;;;5.43;;
55364;SDS011;41245;45.384;20.390;2023-05-14T12:14:45;17.73;;;4.40;;
55364;SDS011;41245;45.384;20.390;2023-05-14T12:17:16;10.32;;;3.42;;
55364;SDS011;41245;45.384;20.390;2023-05-14T12:19:47;11.30;;;5.43;;
55364;SDS011;41245;45.384;20.390;2023-05-14T12:22:20;8.10;;;3.17;;
55364;SDS011;41245;45.384;20.390;2023-05-14T12:24:53;8.40;;;3.85;;
55364;SDS011;41245;45.384;20.390;2023-05-14T12:27:20;13.27;;;5.95;;
55364;SDS011;41245;45.384;20.390;2023-05-14T12:29:59;11.60;;;4.97;;
55364;SDS011;41245;45.384;20.390;2023-05-14T12:32:36;8.67;;;5.53;;
55364;SDS011;41245;45.384;20.390;2023-05-14T12:35:05;12.30;;;4.40;;
55364;SDS011;41245;45.384;20.390;2023-05-14T12:37:32;6.65;;;3.50;;
55364;SDS011;41245;45.384;20.390;2023-05-14T12:39:58;12.18;;;4.63;;
55364;SDS011;41245;45.384;20.390;2023-05-14T12:42:23;8.07;;;3.85;;
55364;SDS011;41245;45.384;20.390;2023-05-14T12:44:49;10.55;;;4.25;;
55364;SDS011;41245;45.384;20.390;2023-05-14T12:47:15;9.90;;;3.95;;
55364;SDS011;41245;45.384;20.390;2023-05-14T12:49:41;10.90;;;3.97;;
55364;SDS011;41245;45.384;20.390;2023-05-14T12:52:07;11.32;;;4.55;;
55364;SDS011;41245;45.384;20.390;2023-05-14T12:54:32;14.43;;;3.80;;
55364;SDS011;41245;45.384;20.390;2023-05-14T12:56:58;14.85;;;3.50;;
55364;SDS011;41245;45.384;20.390;2023-05-14T12:59:24;15.30;;;4.00;;
55364;SDS011;41245;45.384;20.390;2023-05-14T13:01:49;19.58;;;4.38;;
55364;SDS011;41245;45.384;20.390;2023-05-14T13:04:15;18.67;;;3.83;;
55364;SDS011;41245;45.384;20.390;2023-05-14T13:06:41;10.30;;;3.80;;
55364;SDS011;41245;45.384;20.390;2023-05-14T13:09:07;13.55;;;4.20;;
55364;SDS011;41245;45.384;20.390;2023-05-14T13:11:32;19.13;;;5.30;;
55364;SDS011;41245;45.384;20.390;2023-05-14T13:14:00;13.02;;;4.15;;
55364;SDS011;41245;45.384;20.390;2023-05-14T13:16:27;16.40;;;4.13;;
55364;SDS011;41245;45.384;20.390;2023-05-14T13:18:53;11.50;;;3.00;;
55364;SDS011;41245;45.384;20.390;2023-05-14T13:21:19;16.73;;;3.80;;
55364;SDS011;41245;45.384;20.390;2023-05-14T13:23:45;9.50;;;3.58;;
55364;SDS011;41245;45.384;20.390;2023-05-14T13:26:11;10.93;;;3.42;;
55364;SDS011;41245;45.384;20.390;2023-05-14T13:28:38;15.40;;;4.43;;
55364;SDS011;41245;45.384;20.390;2023-05-14T13:31:08;8.95;;;3.50;;
55364;SDS011;41245;45.384;20.390;2023-05-14T13:33:35;10.05;;;3.78;;
55364;SDS011;41245;45.384;20.390;2023-05-14T13:36:02;16.50;;;3.88;;
55364;SDS011;41245;45.384;20.390;2023-05-14T13:38:28;8.50;;;3.88;;
55364;SDS011;41245;45.384;20.390;2023-05-14T13:40:54;14.18;;;4.03;;
55364;SDS011;41245;45.384;20.390;2023-05-14T13:43:22;14.35;;;5.25;;
55364;SDS011;41245;45.384;20.390;2023-05-14T13:45:48;7.22;;;3.38;;
55364;SDS011;41245;45.384;20.390;2023-05-14T13:48:14;7.85;;;3.63;;
55364;SDS011;41245;45.384;20.390;2023-05-14T13:50:39;16.15;;;3.65;;
55364;SDS011;41245;45.384;20.390;2023-05-14T13:53:05;20.30;;;4.82;;
55364;SDS011;41245;45.384;20.390;2023-05-14T13:55:31;11.52;;;4.22;;
55364;SDS011;41245;45.384;20.390;2023-05-14T13:57:56;14.10;;;3.58;;
55364;SDS011;41245;45.384;20.390;2023-05-14T14:00:23;7.78;;;3.90;;
55364;SDS011;41245;45.384;20.390;2023-05-14T14:02:49;9.30;;;4.13;;
55364;SDS011;41245;45.384;20.390;2023-05-14T14:05:15;14.65;;;3.92;;
55364;SDS011;41245;45.384;20.390;2023-05-14T14:07:41;6.63;;;4.70;;
55364;SDS011;41245;45.384;20.390;2023-05-14T14:10:07;9.73;;;4.13;;
55364;SDS011;41245;45.384;20.390;2023-05-14T14:12:33;18.38;;;5.75;;
55364;SDS011;41245;45.384;20.390;2023-05-14T14:14:58;13.48;;;4.25;;
55364;SDS011;41245;45.384;20.390;2023-05-14T14:17:25;11.57;;;4.47;;
55364;SDS011;41245;45.384;20.390;2023-05-14T14:19:50;10.10;;;4.78;;
55364;SDS011;41245;45.384;20.390;2023-05-14T14:22:16;14.68;;;4.78;;
55364;SDS011;41245;45.384;20.390;2023-05-14T14:24:42;22.90;;;6.15;;
55364;SDS011;41245;45.384;20.390;2023-05-14T14:27:08;6.97;;;5.00;;
55364;SDS011;41245;45.384;20.390;2023-05-14T14:29:33;6.75;;;4.38;;
55364;SDS011;41245;45.384;20.390;2023-05-14T14:32:00;17.70;;;5.97;;
55364;SDS011;41245;45.384;20.390;2023-05-14T14:34:26;13.70;;;5.03;;
55364;SDS011;41245;45.384;20.390;2023-05-14T14:36:52;12.15;;;5.07;;
55364;SDS011;41245;45.384;20.390;2023-05-14T14:39:17;11.85;;;5.32;;
55364;SDS011;41245;45.384;20.390;2023-05-14T14:41:43;15.43;;;5.00;;
55364;SDS011;41245;45.384;20.390;2023-05-14T14:44:09;9.00;;;4.68;;